Time;durP1;ratioP1;P1;durP2;ratioP2;P2;SDS_P1;SDS_P2;PMS_P1;PMS_P2;Temp;Humidity;BMP_temperature;BMP_pressure;BME280_temperature;BME280_humidity;BME280_pressure;Samples;Min_cycle;Max_cycle;Signal;HPM_P1;HPM_P2
2022/09/11 00:00:42;;;;;;;14.57;12.20;;;14.50;99.90;;;;;;5003412;28;20038;-82
2022/09/11 00:03:08;;;;;;;11.88;10.13;;;14.50;99.90;;;;;;5001278;28;20022;-77
2022/09/11 00:05:42;;;;;;;11.15;9.95;;;14.50;99.90;;;;;;5003282;28;20474;-78
2022/09/11 00:08:10;;;;;;;8.43;7.30;;;14.50;99.90;;;;;;5011934;28;20035;-76
2022/09/11 00:10:39;;;;;;;8.23;7.43;;;14.50;99.90;;;;;;5004006;28;20065;-81
2022/09/11 00:13:14;;;;;;;10.57;7.85;;;14.50;99.90;;;;;;5001329;28;20113;-83
2022/09/11 00:15:42;;;;;;;10.25;7.90;;;14.50;99.90;;;;;;5003004;28;20057;-77
2022/09/11 00:18:13;;;;;;;11.35;7.80;;;14.50;99.90;;;;;;5002629;28;20080;-76
2022/09/11 00:20:45;;;;;;;11.02;8.23;;;14.50;99.90;;;;;;5002002;28;20285;-77
2022/09/11 00:23:11;;;;;;;8.40;7.20;;;14.50;99.90;;;;;;5002814;28;20049;-77
2022/09/11 00:25:39;;;;;;;11.40;7.40;;;14.50;99.90;;;;;;5003062;28;20557;-76
2022/09/11 00:28:06;;;;;;;7.18;6.47;;;14.40;99.90;;;;;;5002339;28;20068;-81
2022/09/11 00:30:32;;;;;;;8.70;6.47;;;14.40;99.90;;;;;;5002687;28;20049;-80
2022/09/11 00:32:58;;;;;;;7.43;6.55;;;14.40;99.90;;;;;;5001831;28;20394;-78
2022/09/11 00:35:24;;;;;;;9.25;7.10;;;14.30;99.90;;;;;;4995368;28;20026;-84
2022/09/11 00:37:50;;;;;;;8.88;7.13;;;14.30;99.90;;;;;;5001327;28;20034;-76
2022/09/11 00:40:17;;;;;;;9.02;7.70;;;14.30;99.90;;;;;;5016857;28;20371;-77
2022/09/11 00:42:43;;;;;;;10.30;7.85;;;14.30;99.90;;;;;;5035803;28;20061;-77
2022/09/11 00:45:26;;;;;;;8.40;6.65;;;14.40;99.90;;;;;;5003619;28;20025;-83
2022/09/11 00:47:57;;;;;;;11.23;8.38;;;14.50;99.90;;;;;;5002397;28;20033;-79
2022/09/11 00:50:25;;;;;;;10.38;7.30;;;14.50;99.90;;;;;;5002340;28;20054;-79
2022/09/11 00:52:59;;;;;;;10.07;8.95;;;14.50;99.90;;;;;;5006213;28;20499;-81
2022/09/11 00:55:30;;;;;;;11.77;8.95;;;14.50;99.90;;;;;;5003203;28;20026;-77
2022/09/11 00:58:03;;;;;;;13.68;9.23;;;14.50;99.90;;;;;;5000803;28;20026;-79
2022/09/11 01:00:28;;;;;;;15.63;13.15;;;14.50;99.90;;;;;;5002629;28;20046;-76
2022/09/11 01:02:56;;;;;;;15.25;11.30;;;14.60;99.90;;;;;;5004132;28;21241;-78
2022/09/11 01:05:25;;;;;;;16.42;12.85;;;14.60;99.90;;;;;;4985639;28;20041;-77
2022/09/11 01:07:53;;;;;;;14.68;12.07;;;14.60;99.90;;;;;;5033568;28;20090;-78
2022/09/11 01:10:39;;;;;;;17.25;12.15;;;14.60;99.90;;;;;;5019302;28;20030;-76
2022/09/11 01:13:36;;;;;;;18.05;12.40;;;14.70;99.90;;;;;;4992214;28;20033;-76
2022/09/11 01:16:23;;;;;;;19.10;13.55;;;14.60;99.90;;;;;;5004688;28;20080;-77
2022/09/11 01:18:49;;;;;;;13.48;10.85;;;14.60;99.90;;;;;;5004823;28;20076;-80
2022/09/11 01:21:32;;;;;;;14.02;11.32;;;14.60;99.90;;;;;;5005639;28;20111;-77
2022/09/11 01:24:31;;;;;;;14.63;10.88;;;14.60;99.90;;;;;;5005450;28;20038;-77
2022/09/11 01:27:05;;;;;;;16.58;10.95;;;14.60;99.90;;;;;;5006923;28;20042;-80
2022/09/11 01:29:38;;;;;;;13.85;10.70;;;14.50;99.90;;;;;;5004497;28;20040;-80
2022/09/11 01:32:19;;;;;;;12.20;9.98;;;14.50;99.90;;;;;;5004720;28;20026;-77
2022/09/11 01:34:52;;;;;;;13.00;10.05;;;14.50;99.90;;;;;;5005086;28;20029;-80
2022/09/11 01:37:35;;;;;;;12.50;8.98;;;14.50;99.90;;;;;;5004237;28;20033;-78
2022/09/11 01:40:09;;;;;;;17.90;12.40;;;14.50;99.90;;;;;;5003759;28;20045;-84
2022/09/11 01:42:39;;;;;;;16.85;13.48;;;14.50;99.90;;;;;;5039425;28;20438;-77
2022/09/11 01:45:06;;;;;;;15.43;12.63;;;14.40;99.90;;;;;;5004386;28;20497;-82
2022/09/11 01:47:33;;;;;;;17.40;13.48;;;14.40;99.90;;;;;;5004705;28;20076;-82
2022/09/11 01:50:08;;;;;;;18.23;12.60;;;14.40;99.90;;;;;;5022302;28;20026;-77
2022/09/11 01:53:00;;;;;;;14.23;10.40;;;14.40;99.90;;;;;;5005953;28;20030;-83
2022/09/11 01:55:40;;;;;;;13.75;10.23;;;14.30;99.90;;;;;;4986354;28;20033;-81
2022/09/11 01:58:09;;;;;;;12.43;9.80;;;14.30;99.90;;;;;;4991442;28;20073;-80
2022/09/11 02:00:45;;;;;;;12.18;9.70;;;14.30;99.90;;;;;;5021539;28;20077;-81
2022/09/11 02:03:21;;;;;;;11.95;8.43;;;14.20;99.90;;;;;;5003000;28;20049;-78
2022/09/11 02:06:00;;;;;;;10.38;8.15;;;14.20;99.90;;;;;;5003997;28;20092;-77
2022/09/11 02:08:43;;;;;;;10.10;8.27;;;14.20;99.90;;;;;;5004144;28;20030;-82
2022/09/11 02:11:12;;;;;;;11.65;8.82;;;14.10;99.90;;;;;;5003796;28;20113;-83
2022/09/11 02:14:05;;;;;;;10.23;8.82;;;14.00;99.90;;;;;;5019633;28;20025;-79
2022/09/11 02:17:02;;;;;;;12.57;9.82;;;14.00;99.90;;;;;;4988252;28;20136;-78
2022/09/11 02:19:30;;;;;;;11.27;8.25;;;14.00;99.90;;;;;;5003708;28;20128;-80
2022/09/11 02:21:57;;;;;;;12.43;8.65;;;13.80;99.90;;;;;;5002556;28;20033;-78
2022/09/11 02:24:24;;;;;;;11.95;9.30;;;13.90;99.90;;;;;;5005297;28;20033;-77
2022/09/11 02:27:06;;;;;;;11.93;8.45;;;13.90;99.90;;;;;;5005911;28;20094;-78
2022/09/11 02:29:32;;;;;;;11.02;8.85;;;13.90;99.90;;;;;;5018856;28;20084;-83
2022/09/11 02:32:00;;;;;;;9.43;8.07;;;13.90;99.90;;;;;;5004917;28;20021;-75
2022/09/11 02:34:29;;;;;;;9.40;7.55;;;13.80;99.90;;;;;;5003374;28;20379;-77
2022/09/11 02:37:19;;;;;;;11.20;8.52;;;13.70;99.90;;;;;;5001865;28;20019;-78
2022/09/11 02:40:05;;;;;;;10.60;8.85;;;13.60;99.90;;;;;;5006811;28;20084;-80
2022/09/11 02:42:46;;;;;;;11.07;8.57;;;13.50;99.90;;;;;;5056559;28;20560;-77
2022/09/11 02:45:30;;;;;;;12.55;8.88;;;13.50;99.90;;;;;;5005080;28;20411;-77
2022/09/11 02:48:11;;;;;;;10.05;7.32;;;13.50;99.90;;;;;;5023653;28;20025;-78
2022/09/11 02:50:43;;;;;;;11.27;9.23;;;13.50;99.90;;;;;;5041163;28;20037;-79
2022/09/11 02:53:22;;;;;;;11.35;9.23;;;13.40;99.90;;;;;;5021991;28;20030;-77
2022/09/11 02:56:15;;;;;;;10.93;8.48;;;13.40;99.90;;;;;;5007812;28;20028;-78
2022/09/11 02:59:05;;;;;;;11.80;9.13;;;13.30;99.90;;;;;;5039596;28;20033;-77
2022/09/11 03:01:50;;;;;;;10.43;8.25;;;13.40;99.90;;;;;;5024437;28;20064;-77
2022/09/11 03:04:17;;;;;;;10.07;7.70;;;13.40;99.90;;;;;;5038447;28;20382;-80
2022/09/11 03:06:44;;;;;;;10.45;8.35;;;13.40;99.90;;;;;;5025253;28;20422;-77
2022/09/11 03:09:10;;;;;;;10.43;8.18;;;13.20;99.90;;;;;;5021090;28;20172;-78
2022/09/11 03:11:37;;;;;;;9.85;8.13;;;13.20;99.90;;;;;;5057427;28;20060;-76
2022/09/11 03:14:03;;;;;;;10.32;8.27;;;13.20;99.90;;;;;;5023185;28;20045;-82
2022/09/11 03:16:29;;;;;;;9.65;7.70;;;13.10;99.90;;;;;;5024040;28;20029;-78
2022/09/11 03:18:55;;;;;;;11.10;8.18;;;13.10;99.90;;;;;;5041603;28;20183;-77
2022/09/11 03:21:21;;;;;;;10.10;8.23;;;13.10;99.90;;;;;;5017282;28;20025;-75
2022/09/11 03:23:46;;;;;;;12.40;8.23;;;13.00;99.90;;;;;;5023242;28;20541;-77
2022/09/11 03:26:12;;;;;;;11.25;8.02;;;13.00;99.90;;;;;;5021690;28;20040;-78
2022/09/11 03:28:38;;;;;;;11.18;8.93;;;13.00;99.90;;;;;;5021816;28;20413;-81
2022/09/11 03:31:06;;;;;;;13.48;7.85;;;12.90;99.90;;;;;;5036353;28;20529;-76
2022/09/11 03:33:33;;;;;;;10.07;7.53;;;13.00;99.90;;;;;;5040224;28;20478;-81
2022/09/11 03:35:59;;;;;;;11.50;7.28;;;13.00;99.90;;;;;;5056089;28;20385;-76
2022/09/11 03:38:25;;;;;;;9.48;6.82;;;12.90;99.90;;;;;;5040179;28;20108;-77
2022/09/11 03:40:53;;;;;;;9.32;7.15;;;12.90;99.90;;;;;;5022288;28;20072;-78
2022/09/11 03:43:20;;;;;;;8.98;7.00;;;12.90;99.90;;;;;;5022030;28;20025;-78
2022/09/11 03:45:50;;;;;;;10.70;8.52;;;12.90;99.90;;;;;;5054963;28;20035;-77
2022/09/11 03:48:17;;;;;;;10.55;7.68;;;12.90;99.90;;;;;;5055821;28;20080;-76
2022/09/11 03:50:46;;;;;;;10.02;7.57;;;12.90;99.90;;;;;;5021985;28;20190;-78
2022/09/11 03:53:13;;;;;;;11.35;7.63;;;12.80;99.90;;;;;;5023175;28;20064;-78
2022/09/11 03:55:39;;;;;;;7.03;6.10;;;12.80;99.90;;;;;;5021638;28;20477;-77
2022/09/11 03:58:06;;;;;;;7.35;5.88;;;12.80;99.90;;;;;;5018591;28;20028;-81
2022/09/11 04:00:32;;;;;;;7.57;5.85;;;12.90;99.90;;;;;;5022761;28;20037;-77
2022/09/11 04:02:59;;;;;;;7.25;5.38;;;12.80;99.90;;;;;;5021865;28;20060;-81
2022/09/11 04:05:31;;;;;;;7.18;5.93;;;12.80;99.90;;;;;;5021156;28;20052;-78
2022/09/11 04:08:00;;;;;;;10.85;6.25;;;12.80;99.90;;;;;;5038678;28;20026;-77
2022/09/11 04:10:27;;;;;;;6.65;5.45;;;12.80;99.90;;;;;;5021723;28;20032;-78
2022/09/11 04:12:55;;;;;;;7.25;5.50;;;12.70;99.90;;;;;;5022578;28;20037;-81
2022/09/11 04:15:21;;;;;;;8.65;6.18;;;12.70;99.90;;;;;;5007179;28;20397;-76
2022/09/11 04:17:48;;;;;;;9.38;6.03;;;12.60;99.90;;;;;;5055314;28;20030;-81
2022/09/11 04:20:14;;;;;;;9.00;5.25;;;12.60;99.90;;;;;;5023241;28;20033;-77
2022/09/11 04:22:41;;;;;;;9.40;6.85;;;12.70;99.90;;;;;;5022203;28;20116;-79
2022/09/11 04:25:08;;;;;;;8.02;5.82;;;12.60;99.90;;;;;;5021379;28;20026;-78
2022/09/11 04:27:33;;;;;;;10.70;7.25;;;12.60;99.90;;;;;;5056480;28;20017;-79
2022/09/11 04:30:01;;;;;;;9.77;7.43;;;12.60;99.90;;;;;;5023219;28;20028;-81
2022/09/11 04:32:28;;;;;;;13.50;7.85;;;12.60;99.90;;;;;;5022392;28;20455;-78
2022/09/11 04:34:55;;;;;;;12.10;6.78;;;12.60;99.90;;;;;;5016857;28;20394;-81
2022/09/11 04:37:20;;;;;;;10.85;7.35;;;12.60;99.90;;;;;;5025852;28;20489;-78
2022/09/11 04:39:47;;;;;;;11.38;7.38;;;12.60;99.90;;;;;;5039604;28;20049;-81
2022/09/11 04:42:14;;;;;;;9.05;6.60;;;12.60;99.90;;;;;;5020283;28;20026;-84
2022/09/11 04:44:42;;;;;;;9.45;7.25;;;12.60;99.90;;;;;;5006021;28;20160;-81
2022/09/11 04:47:08;;;;;;;8.57;6.20;;;12.60;99.90;;;;;;5024500;28;20151;-77
2022/09/11 04:49:34;;;;;;;9.45;7.30;;;12.60;99.90;;;;;;5025872;28;20500;-80
2022/09/11 04:52:04;;;;;;;8.95;6.57;;;12.50;99.90;;;;;;5058831;28;20021;-76
2022/09/11 04:54:35;;;;;;;8.73;6.75;;;12.50;99.90;;;;;;5058692;28;20075;-78
2022/09/11 04:57:04;;;;;;;8.45;6.43;;;12.50;99.90;;;;;;5043376;28;20069;-77
2022/09/11 04:59:32;;;;;;;8.10;6.22;;;12.40;99.90;;;;;;5017276;28;20065;-77
2022/09/11 05:02:03;;;;;;;8.95;6.97;;;12.50;99.90;;;;;;5025778;28;20065;-77
2022/09/11 05:04:28;;;;;;;12.52;7.55;;;12.50;99.90;;;;;;5026362;28;20119;-78
2022/09/11 05:06:54;;;;;;;9.05;6.50;;;12.40;99.90;;;;;;5058931;28;20021;-76
2022/09/11 05:09:20;;;;;;;9.43;6.43;;;12.50;99.90;;;;;;5026855;28;20075;-78
2022/09/11 05:11:47;;;;;;;8.20;5.95;;;12.50;99.90;;;;;;5024047;28;20513;-79
2022/09/11 05:14:14;;;;;;;7.75;6.13;;;12.40;99.90;;;;;;5027331;28;20160;-81
2022/09/11 05:16:42;;;;;;;9.50;6.72;;;12.40;99.90;;;;;;5043111;28;20028;-83
2022/09/11 05:19:10;;;;;;;9.10;6.18;;;12.40;99.90;;;;;;5059509;28;20044;-79
2022/09/11 05:21:38;;;;;;;7.95;5.90;;;12.50;99.90;;;;;;5022959;28;20034;-80
2022/09/11 05:24:04;;;;;;;10.85;6.68;;;12.50;99.90;;;;;;5023321;28;20470;-82
2022/09/11 05:26:35;;;;;;;10.48;6.93;;;12.50;99.90;;;;;;5018887;28;20021;-82
2022/09/11 05:29:09;;;;;;;10.65;5.93;;;12.60;99.90;;;;;;5065875;28;20022;-83
2022/09/11 05:31:41;;;;;;;11.05;6.78;;;12.60;99.90;;;;;;5018830;28;20405;-79
2022/09/11 05:34:07;;;;;;;10.75;6.80;;;12.50;99.90;;;;;;5033098;28;20032;-81
2022/09/11 05:36:34;;;;;;;12.93;6.57;;;12.60;99.90;;;;;;5020250;28;20055;-80
2022/09/11 05:39:02;;;;;;;8.60;6.10;;;12.60;99.90;;;;;;5020508;28;20389;-76
2022/09/11 05:41:28;;;;;;;7.60;5.75;;;12.70;99.90;;;;;;5011520;28;20037;-78
2022/09/11 05:43:54;;;;;;;8.00;5.60;;;12.70;99.90;;;;;;5026112;28;20028;-83
2022/09/11 05:46:20;;;;;;;7.20;5.78;;;12.70;99.90;;;;;;5029404;28;20448;-83
2022/09/11 05:48:50;;;;;;;6.38;5.38;;;12.70;99.90;;;;;;5015049;28;20414;-78
2022/09/11 05:51:20;;;;;;;6.50;5.43;;;12.80;99.90;;;;;;5029384;28;20033;-83
2022/09/11 05:53:47;;;;;;;8.10;5.60;;;12.80;99.90;;;;;;5029856;28;20474;-80
2022/09/11 05:56:18;;;;;;;7.00;5.47;;;12.90;99.90;;;;;;5030522;28;20102;-81
2022/09/11 05:58:46;;;;;;;9.02;5.88;;;12.90;99.90;;;;;;5018914;28;20084;-82
2022/09/11 06:01:17;;;;;;;8.52;6.03;;;13.10;99.90;;;;;;5016293;28;20564;-79
2022/09/11 06:03:48;;;;;;;7.47;5.45;;;13.10;99.90;;;;;;5062756;28;20061;-77
2022/09/11 06:06:16;;;;;;;7.93;5.47;;;13.10;99.90;;;;;;5015656;28;20041;-77
2022/09/11 06:08:43;;;;;;;7.90;6.20;;;13.20;99.90;;;;;;5018611;28;20033;-82
2022/09/11 06:11:11;;;;;;;7.28;6.18;;;13.30;99.90;;;;;;5020106;28;20057;-78
2022/09/11 06:13:40;;;;;;;9.00;6.57;;;13.30;99.90;;;;;;5010986;28;20441;-80
2022/09/11 06:16:09;;;;;;;8.00;5.88;;;13.40;99.90;;;;;;5018910;28;20086;-81
2022/09/11 06:18:34;;;;;;;7.75;5.55;;;13.50;99.90;;;;;;5028512;28;20110;-79
2022/09/11 06:21:05;;;;;;;7.15;5.75;;;13.50;99.90;;;;;;5013219;28;20084;-83
2022/09/11 06:23:36;;;;;;;6.55;5.03;;;13.50;99.90;;;;;;5032198;28;20503;-81
2022/09/11 06:26:07;;;;;;;13.05;5.13;;;13.60;99.90;;;;;;5016228;28;20033;-84
2022/09/11 06:28:36;;;;;;;10.50;5.45;;;13.60;99.90;;;;;;5014542;28;20211;-81
2022/09/11 06:31:03;;;;;;;5.80;5.20;;;13.50;99.90;;;;;;5061424;28;20032;-80
2022/09/11 06:33:33;;;;;;;7.40;5.47;;;13.60;99.90;;;;;;5032038;28;20013;-82
2022/09/11 06:36:03;;;;;;;9.27;5.68;;;13.70;99.90;;;;;;5061688;28;20060;-82
2022/09/11 06:38:30;;;;;;;7.45;5.53;;;13.70;99.90;;;;;;5018663;28;20030;-80
2022/09/11 06:41:01;;;;;;;8.30;5.95;;;13.70;99.90;;;;;;5028332;28;20104;-78
2022/09/11 06:43:27;;;;;;;8.32;5.88;;;13.80;99.90;;;;;;5018634;28;20152;-79
2022/09/11 06:45:53;;;;;;;9.68;6.97;;;13.80;99.90;;;;;;5044861;28;20029;-82
2022/09/11 06:48:19;;;;;;;14.18;6.43;;;13.90;99.90;;;;;;5013928;28;20036;-82
2022/09/11 06:50:45;;;;;;;15.48;6.80;;;13.90;99.90;;;;;;5005445;28;20055;-80
2022/09/11 06:53:13;;;;;;;22.65;7.55;;;14.00;99.90;;;;;;5030133;28;20057;-82
2022/09/11 06:55:46;;;;;;;11.52;6.47;;;14.10;99.90;;;;;;5031158;28;20033;-79
2022/09/11 06:58:14;;;;;;;14.48;7.72;;;14.10;99.90;;;;;;5011681;28;20094;-84
2022/09/11 07:00:40;;;;;;;9.20;7.38;;;14.10;99.90;;;;;;5018176;28;20540;-79
2022/09/11 07:03:12;;;;;;;11.75;6.53;;;14.20;99.90;;;;;;5028652;28;20039;-76
2022/09/11 07:05:43;;;;;;;15.30;8.23;;;14.30;99.90;;;;;;5018398;28;20119;-82
2022/09/11 07:08:09;;;;;;;17.80;8.18;;;14.30;99.90;;;;;;5016129;28;20035;-78
2022/09/11 07:10:36;;;;;;;10.38;6.68;;;14.30;99.90;;;;;;5017016;28;20033;-81
2022/09/11 07:13:01;;;;;;;13.57;8.50;;;14.30;99.90;;;;;;5026980;28;20466;-81
2022/09/11 07:15:28;;;;;;;9.77;7.88;;;14.30;99.90;;;;;;5014937;28;20517;-80
2022/09/11 07:17:56;;;;;;;15.10;8.32;;;14.40;99.90;;;;;;5028825;28;20477;-81
2022/09/11 07:20:23;;;;;;;12.15;7.95;;;14.60;99.90;;;;;;5030199;28;20033;-81
2022/09/11 07:22:49;;;;;;;12.88;9.48;;;14.60;99.90;;;;;;5030783;28;20155;-80
2022/09/11 07:25:16;;;;;;;13.70;7.82;;;14.60;99.90;;;;;;5026474;28;20460;-82
2022/09/11 07:27:43;;;;;;;14.98;8.45;;;14.70;99.90;;;;;;5030791;28;20025;-79
2022/09/11 07:30:10;;;;;;;15.85;8.73;;;14.90;99.90;;;;;;5011587;28;20037;-80
2022/09/11 07:32:38;;;;;;;12.60;9.05;;;14.90;99.90;;;;;;5025386;28;20377;-81
2022/09/11 07:35:04;;;;;;;14.68;9.15;;;14.90;99.90;;;;;;5016269;28;20028;-79
2022/09/11 07:37:30;;;;;;;12.40;9.32;;;15.00;99.90;;;;;;5015335;28;20060;-82
2022/09/11 07:39:55;;;;;;;12.57;9.32;;;14.90;99.90;;;;;;5028816;28;20516;-78
2022/09/11 07:42:25;;;;;;;13.57;10.20;;;15.00;99.90;;;;;;5011525;28;20517;-77
2022/09/11 07:44:51;;;;;;;17.63;10.35;;;15.10;99.90;;;;;;5011985;28;20061;-77
2022/09/11 07:47:17;;;;;;;13.77;10.55;;;15.10;99.90;;;;;;5006454;28;20388;-82
2022/09/11 07:49:47;;;;;;;13.10;9.15;;;15.20;99.90;;;;;;5024516;28;20407;-80
2022/09/11 07:52:19;;;;;;;14.52;11.10;;;15.30;99.90;;;;;;5011919;28;20037;-78
2022/09/11 07:54:50;;;;;;;12.98;9.77;;;15.30;99.90;;;;;;5018037;28;20032;-77
2022/09/11 07:57:18;;;;;;;12.85;9.30;;;15.30;99.90;;;;;;5017081;28;20074;-79
2022/09/11 07:59:47;;;;;;;18.40;12.00;;;15.20;99.90;;;;;;5017592;28;20088;-78
2022/09/11 08:02:13;;;;;;;20.02;14.52;;;15.30;99.90;;;;;;5030780;28;20033;-79
2022/09/11 08:04:38;;;;;;;28.40;16.48;;;15.20;99.90;;;;;;5030247;28;20033;-81
2022/09/11 08:07:05;;;;;;;27.60;19.13;;;15.10;99.90;;;;;;5009867;28;20028;-81
2022/09/11 08:09:33;;;;;;;21.50;15.75;;;15.10;99.90;;;;;;5016394;28;20030;-77
2022/09/11 08:12:01;;;;;;;19.40;14.48;;;15.20;99.90;;;;;;5016718;28;20021;-77
2022/09/11 08:14:30;;;;;;;18.35;13.32;;;15.30;99.90;;;;;;5047946;28;20116;-80
2022/09/11 08:17:01;;;;;;;19.83;13.40;;;15.50;99.90;;;;;;5019855;28;20026;-80
2022/09/11 08:19:29;;;;;;;17.02;12.45;;;15.60;99.90;;;;;;5034499;28;20087;-80
2022/09/11 08:21:59;;;;;;;;;;;15.70;99.90;;;;;;5034570;28;20111;-79
2022/09/11 08:24:26;;;;;;;17.58;11.68;;;15.70;99.90;;;;;;5019991;28;19953;-78
2022/09/11 08:26:55;;;;;;;15.80;11.20;;;15.70;99.90;;;;;;5032549;28;20030;-77
2022/09/11 08:29:23;;;;;;;19.08;13.93;;;15.80;99.90;;;;;;5019453;28;20121;-78
2022/09/11 08:31:50;;;;;;;20.77;14.07;;;15.80;99.90;;;;;;5016184;28;20034;-77
2022/09/11 08:34:16;;;;;;;16.15;11.60;;;15.80;99.90;;;;;;5019048;28;20116;-78
2022/09/11 08:36:43;;;;;;;17.23;12.15;;;15.90;99.90;;;;;;5011152;28;20524;-79
2022/09/11 08:39:10;;;;;;;24.98;18.13;;;15.90;99.90;;;;;;5013703;28;20033;-77
2022/09/11 08:41:48;;;;;;;22.38;16.33;;;15.70;99.90;;;;;;5032426;28;20440;-82
2022/09/11 08:44:22;;;;;;;23.40;17.13;;;15.80;99.90;;;;;;5020754;28;20233;-79
2022/09/11 08:46:54;;;;;;;24.73;19.23;;;16.00;99.90;;;;;;5046274;28;20402;-81
2022/09/11 08:49:34;;;;;;;25.60;18.85;;;16.00;99.90;;;;;;5034143;28;21910;-80
2022/09/11 08:52:01;;;;;;;16.42;12.23;;;15.90;99.90;;;;;;5047900;28;20029;-78
2022/09/11 08:54:33;;;;;;;26.60;19.90;;;15.90;99.90;;;;;;5005904;28;20112;-78
2022/09/11 08:57:23;;;;;;;21.17;15.75;;;15.90;99.90;;;;;;5012869;28;20032;-80
2022/09/11 09:00:01;;;;;;;17.73;12.25;;;16.30;99.90;;;;;;5003941;28;20040;-82
2022/09/11 09:02:39;;;;;;;15.52;12.27;;;16.60;99.90;;;;;;5011813;28;20032;-82
2022/09/11 09:05:27;;;;;;;21.23;14.73;;;16.80;99.90;;;;;;5031373;28;20275;-79
2022/09/11 09:08:13;;;;;;;18.77;13.48;;;16.90;99.90;;;;;;5012103;28;20128;-78
2022/09/11 09:11:03;;;;;;;17.55;13.07;;;17.20;99.90;;;;;;5032961;28;20462;-81
2022/09/11 09:13:41;;;;;;;18.67;13.82;;;17.40;99.90;;;;;;5002166;28;20025;-77
2022/09/11 09:16:17;;;;;;;16.50;12.82;;;17.50;99.90;;;;;;5064452;28;20051;-78
2022/09/11 09:18:47;;;;;;;18.15;14.20;;;17.50;99.90;;;;;;5014044;28;20560;-77
2022/09/11 09:21:19;;;;;;;22.73;16.20;;;17.50;99.90;;;;;;5020641;28;20157;-81
2022/09/11 09:23:54;;;;;;;20.95;16.17;;;17.30;99.90;;;;;;5030501;28;20021;-81
2022/09/11 09:26:27;;;;;;;19.02;14.40;;;17.50;99.90;;;;;;5016127;28;20601;-81
2022/09/11 09:28:58;;;;;;;19.27;14.55;;;17.60;99.90;;;;;;5025691;28;20150;-79
2022/09/11 09:31:28;;;;;;;17.17;14.23;;;17.80;99.90;;;;;;5020346;28;20032;-81
2022/09/11 09:34:03;;;;;;;19.38;15.00;;;17.70;99.90;;;;;;5016457;28;20036;-82
2022/09/11 09:36:42;;;;;;;19.40;15.10;;;17.90;99.90;;;;;;5017293;28;20155;-77
2022/09/11 09:39:14;;;;;;;17.42;14.77;;;17.90;99.90;;;;;;5020638;28;20155;-77
2022/09/11 09:41:52;;;;;;;18.23;14.23;;;18.00;99.90;;;;;;5035012;28;20112;-79
2022/09/11 09:44:33;;;;;;;16.65;13.50;;;18.20;99.90;;;;;;5017200;28;20037;-79
2022/09/11 09:46:59;;;;;;;15.07;12.13;;;18.40;99.90;;;;;;5035440;28;20060;-81
2022/09/11 09:49:33;;;;;;;17.15;13.95;;;18.40;99.90;;;;;;5018059;28;20053;-81
2022/09/11 09:52:10;;;;;;;18.52;15.57;;;18.30;99.90;;;;;;5028113;28;20116;-77
2022/09/11 09:54:38;;;;;;;16.92;14.23;;;18.30;99.90;;;;;;5028037;28;20634;-80
2022/09/11 09:57:06;;;;;;;17.35;14.30;;;18.40;99.90;;;;;;5030883;28;20009;-81
2022/09/11 09:59:46;;;;;;;20.60;16.35;;;18.60;99.90;;;;;;5031286;28;20481;-78
2022/09/11 10:02:12;;;;;;;11.93;10.20;;;18.50;99.90;;;;;;5002968;28;20029;-83
2022/09/11 10:04:38;;;;;;;22.52;19.67;;;18.30;99.90;;;;;;5030927;28;20112;-77
2022/09/11 10:07:12;;;;;;;28.08;23.55;;;18.00;99.90;;;;;;5019833;28;20112;-82
2022/09/11 10:09:51;;;;;;;24.58;19.38;;;18.20;99.90;;;;;;5029652;28;20362;-79
2022/09/11 10:12:26;;;;;;;24.83;20.45;;;18.70;99.90;;;;;;5029141;28;20044;-80
2022/09/11 10:15:00;;;;;;;32.85;25.17;;;18.50;99.90;;;;;;5028915;28;20029;-82
2022/09/11 10:17:32;;;;;;;26.55;22.20;;;18.10;99.90;;;;;;5033524;28;20071;-82
2022/09/11 10:20:31;;;;;;;19.13;16.35;;;18.10;99.90;;;;;;5015961;28;20045;-79
2022/09/11 10:23:24;;;;;;;16.75;13.50;;;18.40;99.90;;;;;;4967964;28;21038;-78
2022/09/11 10:25:51;;;;;;;13.88;12.20;;;18.40;99.90;;;;;;5019836;28;20497;-79
2022/09/11 10:28:24;;;;;;;13.65;11.60;;;18.50;99.90;;;;;;5030185;28;20132;-79
2022/09/11 10:30:57;;;;;;;12.60;11.32;;;18.70;99.90;;;;;;5018032;28;20117;-80
2022/09/11 10:33:32;;;;;;;10.30;9.10;;;18.80;99.90;;;;;;5014013;28;20105;-82
2022/09/11 10:36:02;;;;;;;11.98;10.73;;;19.00;99.90;;;;;;5063519;28;20048;-80
2022/09/11 10:38:43;;;;;;;12.50;11.00;;;19.50;99.90;;;;;;5009835;28;20373;-78
2022/09/11 10:41:12;;;;;;;12.93;10.50;;;19.60;99.90;;;;;;5026993;28;20045;-80
2022/09/11 10:44:01;;;;;;;10.93;9.73;;;19.30;99.90;;;;;;5029113;28;20132;-79
2022/09/11 10:47:07;;;;;;;8.75;7.90;;;19.30;99.90;;;;;;5015480;28;20029;-82
2022/09/11 10:49:33;;;;;;;10.50;9.40;;;19.20;99.90;;;;;;5016886;28;20088;-82
2022/09/11 10:52:15;;;;;;;12.13;10.88;;;19.00;99.90;;;;;;5017496;28;20033;-81
2022/09/11 10:54:54;;;;;;;10.82;9.73;;;19.20;99.90;;;;;;5017600;28;20033;-78
2022/09/11 10:57:28;;;;;;;9.52;8.60;;;19.30;99.90;;;;;;5026972;28;20030;-80
2022/09/11 11:00:03;;;;;;;9.98;8.40;;;19.40;99.90;;;;;;5013878;28;20135;-82
2022/09/11 11:02:32;;;;;;;10.40;9.27;;;19.50;99.90;;;;;;5030276;28;20030;-80
2022/09/11 11:05:05;;;;;;;11.27;9.55;;;19.80;99.90;;;;;;5044539;28;20037;-80
2022/09/11 11:08:04;;;;;;;11.45;9.80;;;20.30;99.90;;;;;;5017590;28;20551;-81
2022/09/11 11:10:36;;;;;;;11.95;10.68;;;20.10;99.90;;;;;;5055627;28;20104;-78
2022/09/11 11:13:34;;;;;;;13.38;11.98;;;19.70;99.90;;;;;;5017756;28;20028;-81
2022/09/11 11:16:09;;;;;;;11.98;10.77;;;20.00;99.90;;;;;;5017198;28;20116;-78
2022/09/11 11:18:52;;;;;;;12.73;11.48;;;20.60;99.90;;;;;;5016806;28;20046;-82
2022/09/11 11:21:24;;;;;;;9.82;8.80;;;20.50;99.90;;;;;;5017979;28;20112;-79
2022/09/11 11:24:23;;;;;;;12.43;10.98;;;21.00;99.90;;;;;;5026929;28;20013;-80
2022/09/11 11:27:28;;;;;;;11.45;10.30;;;21.20;99.90;;;;;;5029052;28;20461;-82
2022/09/11 11:30:18;;;;;;;9.57;8.68;;;21.40;99.90;;;;;;5016102;28;20412;-77
2022/09/11 11:33:16;;;;;;;8.77;7.95;;;21.40;99.90;;;;;;5024681;28;20103;-82
2022/09/11 11:36:30;;;;;;;9.10;8.00;;;21.60;99.90;;;;;;4992228;28;20370;-81
2022/09/11 11:39:24;;;;;;;8.68;7.38;;;21.10;99.90;;;;;;5014663;28;20099;-82
2022/09/11 11:42:05;;;;;;;6.45;5.85;;;20.40;99.90;;;;;;5029352;28;20103;-79
2022/09/11 11:44:50;;;;;;;6.03;5.53;;;20.50;99.90;;;;;;5030176;28;20327;-78
2022/09/11 11:47:24;;;;;;;5.90;5.40;;;20.60;99.90;;;;;;5024873;28;20020;-80
2022/09/11 11:50:11;;;;;;;6.72;6.07;;;20.90;99.90;;;;;;5000391;28;20037;-78
2022/09/11 11:52:45;;;;;;;5.85;5.35;;;21.40;99.90;;;;;;5026623;28;20039;-78
2022/09/11 11:55:16;;;;;;;10.70;9.60;;;21.70;99.90;;;;;;5030051;28;20026;-84
2022/09/11 11:57:52;;;;;;;6.72;6.13;;;21.70;99.90;;;;;;5031350;28;20033;-81
2022/09/11 12:00:18;;;;;;;5.65;4.90;;;21.90;99.90;;;;;;5026314;28;20049;-78
2022/09/11 12:03:03;;;;;;;6.15;5.65;;;22.00;99.90;;;;;;5032202;28;20040;-78
2022/09/11 12:05:32;;;;;;;5.45;5.05;;;22.10;99.90;;;;;;5000044;28;20385;-81
2022/09/11 12:07:58;;;;;;;;;;;22.20;99.90;;;;;;5018075;28;20030;-80
2022/09/11 12:10:34;;;;;;;6.20;5.45;;;21.60;99.90;;;;;;5014279;28;19932;-79
2022/09/11 12:13:31;;;;;;;4.90;4.50;;;22.20;99.90;;;;;;5029205;28;20052;-78
2022/09/11 12:16:03;;;;;;;7.40;6.70;;;22.40;99.90;;;;;;5019272;28;20072;-82
2022/09/11 12:18:28;;;;;;;6.65;6.05;;;22.20;99.90;;;;;;5001797;28;20390;-79
2022/09/11 12:21:40;;;;;;;5.22;4.82;;;22.00;99.90;;;;;;5031650;28;20048;-80
2022/09/11 12:24:05;;;;;;;6.90;5.50;;;22.40;99.90;;;;;;4994951;28;20094;-77
2022/09/11 12:26:31;;;;;;;5.05;4.55;;;22.60;99.90;;;;;;5025306;28;20033;-79
2022/09/11 12:29:19;;;;;;;4.05;3.75;;;22.50;99.90;;;;;;5031149;28;20053;-80
2022/09/11 12:31:50;;;;;;;6.15;5.65;;;22.70;99.90;;;;;;5027359;28;20037;-81
2022/09/11 12:34:18;;;;;;;5.47;4.75;;;22.20;99.90;;;;;;5023617;28;20030;-78
2022/09/11 12:36:59;;;;;;;4.72;4.30;;;22.00;99.90;;;;;;5019076;28;20059;-77
2022/09/11 12:39:40;;;;;;;4.78;4.38;;;22.50;99.90;;;;;;5017324;28;20124;-78
2022/09/11 12:42:27;;;;;;;3.92;3.60;;;22.60;99.90;;;;;;5001703;28;20026;-81
2022/09/11 12:44:55;;;;;;;3.60;3.22;;;22.30;99.90;;;;;;5027732;28;20390;-78
2022/09/11 12:47:22;;;;;;;3.58;3.28;;;22.70;99.90;;;;;;5029530;28;20104;-81
2022/09/11 12:50:04;;;;;;;4.72;4.22;;;22.50;99.90;;;;;;5026562;28;20037;-78
2022/09/11 12:52:35;;;;;;;4.53;3.20;;;22.10;99.90;;;;;;4999675;28;20132;-79
2022/09/11 12:55:19;;;;;;;3.70;2.25;;;22.10;99.90;;;;;;5043230;28;20057;-80
2022/09/11 12:57:45;;;;;;;2.50;2.13;;;22.60;99.90;;;;;;5019545;28;20040;-82
2022/09/11 13:00:29;;;;;;;2.75;2.47;;;22.50;99.90;;;;;;5027485;28;20037;-79
2022/09/11 13:02:57;;;;;;;6.60;4.18;;;22.20;99.90;;;;;;5029292;28;20032;-81
2022/09/11 13:05:36;;;;;;;5.20;4.57;;;22.20;99.90;;;;;;5017596;28;20564;-80